Time;durP1;ratioP1;P1;durP2;ratioP2;P2;SDS_P1;SDS_P2;PMS_P1;PMS_P2;Temp;Humidity;BMP_temperature;BMP_pressure;BME280_temperature;BME280_humidity;BME280_pressure;Samples;Min_cycle;Max_cycle;Signal;HPM_P1;HPM_P2
2023/09/04 00:00:59;;;;;;;6.07;2.60;;;;;;;;;;5033042;28;20410;-59
2023/09/04 00:03:25;;;;;;;4.67;2.37;;;;;;;;;;5028720;28;20422;-59
2023/09/04 00:05:50;;;;;;;4.73;2.60;;;;;;;;;;5036462;28;20402;-59
2023/09/04 00:08:15;;;;;;;5.40;2.30;;;;;;;;;;5029878;28;20459;-59
2023/09/04 00:10:41;;;;;;;5.17;2.67;;;;;;;;;;5033391;28;20872;-59
2023/09/04 00:13:06;;;;;;;6.77;2.50;;;;;;;;;;5024190;28;20910;-60
2023/09/04 00:15:31;;;;;;;4.27;2.00;;;;;;;;;;5022345;28;20399;-59
2023/09/04 00:17:56;;;;;;;4.77;2.20;;;;;;;;;;5023356;28;20415;-59
2023/09/04 00:20:23;;;;;;;4.37;2.40;;;;;;;;;;5027093;28;20489;-59
2023/09/04 00:22:49;;;;;;;4.47;2.35;;;;;;;;;;5036062;28;20447;-59
2023/09/04 00:25:15;;;;;;;4.77;2.80;;;;;;;;;;5030309;28;20919;-59
2023/09/04 00:27:40;;;;;;;4.73;2.80;;;;;;;;;;5032991;28;20403;-59
2023/09/04 00:30:05;;;;;;;5.63;2.33;;;;;;;;;;5032110;28;20415;-60
2023/09/04 00:32:31;;;;;;;5.60;2.40;;;;;;;;;;5026270;28;20409;-59
2023/09/04 00:34:56;;;;;;;4.88;2.25;;;;;;;;;;5031647;28;20423;-59
2023/09/04 00:37:22;;;;;;;6.70;2.58;;;;;;;;;;5035422;28;20460;-59
2023/09/04 00:39:47;;;;;;;3.67;2.33;;;;;;;;;;5034246;28;20402;-59
2023/09/04 00:42:15;;;;;;;5.13;2.30;;;;;;;;;;5031051;28;20413;-59
2023/09/04 00:44:43;;;;;;;3.65;2.05;;;;;;;;;;5033031;28;20405;-59
2023/09/04 00:47:09;;;;;;;7.57;2.53;;;;;;;;;;5033664;28;20476;-59
2023/09/04 00:49:35;;;;;;;7.00;2.40;;;;;;;;;;5030526;28;20959;-59
2023/09/04 00:52:00;;;;;;;3.70;2.08;;;;;;;;;;5026553;28;20477;-61
2023/09/04 00:54:25;;;;;;;4.22;2.00;;;;;;;;;;5035630;28;20483;-59
2023/09/04 00:56:51;;;;;;;5.00;2.13;;;;;;;;;;5032164;28;20493;-59
2023/09/04 00:59:17;;;;;;;5.90;2.47;;;;;;;;;;5024694;28;20890;-59
2023/09/04 01:01:42;;;;;;;5.95;2.38;;;;;;;;;;5036253;28;20905;-59
2023/09/04 01:04:07;;;;;;;4.60;2.13;;;;;;;;;;5024145;28;20479;-60
2023/09/04 01:06:33;;;;;;;6.57;2.67;;;;;;;;;;5032068;28;20908;-59
2023/09/04 01:08:58;;;;;;;5.47;2.77;;;;;;;;;;5029025;28;20460;-59
2023/09/04 01:11:26;;;;;;;4.50;2.80;;;;;;;;;;5035373;28;20397;-59
2023/09/04 01:13:52;;;;;;;6.13;2.78;;;;;;;;;;5027552;28;20422;-59
2023/09/04 01:16:17;;;;;;;7.78;3.00;;;;;;;;;;5028565;28;20541;-60
2023/09/04 01:18:43;;;;;;;6.00;2.60;;;;;;;;;;5036050;28;20491;-59
2023/09/04 01:21:08;;;;;;;4.03;2.33;;;;;;;;;;5035546;28;20397;-59
2023/09/04 01:23:33;;;;;;;4.73;2.97;;;;;;;;;;5038283;28;20389;-59
2023/09/04 01:25:59;;;;;;;4.17;3.03;;;;;;;;;;5040696;28;20401;-59
2023/09/04 01:28:26;;;;;;;5.90;3.23;;;;;;;;;;5031196;28;20413;-59
2023/09/04 01:30:55;;;;;;;5.55;3.28;;;;;;;;;;5023116;28;20917;-59
2023/09/04 01:33:22;;;;;;;5.85;3.40;;;;;;;;;;5033954;28;20398;-59
2023/09/04 01:35:47;;;;;;;6.87;3.80;;;;;;;;;;5033404;28;20439;-59
2023/09/04 01:38:12;;;;;;;5.97;3.37;;;;;;;;;;5022050;28;20887;-59
2023/09/04 01:40:38;;;;;;;5.30;3.10;;;;;;;;;;5034608;28;20415;-59
2023/09/04 01:43:03;;;;;;;5.72;3.38;;;;;;;;;;5023376;28;20922;-59
2023/09/04 01:45:28;;;;;;;7.35;4.30;;;;;;;;;;5020890;28;20509;-59
2023/09/04 01:47:53;;;;;;;6.32;4.00;;;;;;;;;;5035528;28;20442;-59
2023/09/04 01:50:19;;;;;;;5.90;3.83;;;;;;;;;;5032018;28;20816;-60
2023/09/04 01:52:44;;;;;;;5.83;3.93;;;;;;;;;;5027797;28;20487;-59
2023/09/04 01:55:09;;;;;;;6.20;4.23;;;;;;;;;;5031178;28;20407;-60
2023/09/04 01:57:34;;;;;;;5.97;4.40;;;;;;;;;;5035229;28;20816;-59
2023/09/04 02:00:00;;;;;;;6.17;4.40;;;;;;;;;;5032913;28;20412;-59
2023/09/04 02:02:25;;;;;;;5.23;3.60;;;;;;;;;;5025619;28;20421;-60
2023/09/04 02:04:50;;;;;;;6.03;4.40;;;;;;;;;;5031921;28;20405;-59
2023/09/04 02:07:16;;;;;;;5.90;3.83;;;;;;;;;;5032704;28;20434;-59
2023/09/04 02:09:41;;;;;;;5.33;3.03;;;;;;;;;;5030015;28;20409;-59
2023/09/04 02:12:07;;;;;;;6.77;3.50;;;;;;;;;;5032910;28;20429;-59
2023/09/04 02:14:32;;;;;;;6.90;3.45;;;;;;;;;;5018634;28;20415;-59
2023/09/04 02:16:57;;;;;;;6.50;3.40;;;;;;;;;;4996217;28;20435;-59
2023/09/04 02:19:22;;;;;;;6.93;3.80;;;;;;;;;;4990781;28;20757;-59
2023/09/04 02:21:48;;;;;;;4.73;3.20;;;;;;;;;;4981907;28;20406;-59
2023/09/04 02:24:13;;;;;;;5.60;4.10;;;;;;;;;;4988986;28;20406;-59
2023/09/04 02:26:38;;;;;;;7.70;4.10;;;;;;;;;;4992563;28;20407;-59
2023/09/04 02:29:03;;;;;;;7.77;4.67;;;;;;;;;;4988894;28;20980;-59
2023/09/04 02:31:29;;;;;;;5.60;4.30;;;;;;;;;;4989228;28;20406;-59
2023/09/04 02:33:54;;;;;;;5.60;4.23;;;;;;;;;;5000816;28;20424;-59
2023/09/04 02:36:19;;;;;;;6.27;4.07;;;;;;;;;;4999471;28;21510;-59
2023/09/04 02:38:45;;;;;;;6.97;4.53;;;;;;;;;;4994306;28;20415;-59
2023/09/04 02:41:10;;;;;;;5.30;3.43;;;;;;;;;;4992226;28;20425;-59
2023/09/04 02:43:35;;;;;;;7.07;4.60;;;;;;;;;;4995183;28;20716;-59
2023/09/04 02:46:01;;;;;;;6.37;4.30;;;;;;;;;;4998269;28;20467;-60
2023/09/04 02:48:26;;;;;;;7.67;4.30;;;;;;;;;;5000982;28;20432;-59
2023/09/04 02:50:56;;;;;;;8.48;4.25;;;;;;;;;;5009034;28;20420;-59
2023/09/04 02:53:21;;;;;;;7.95;4.65;;;;;;;;;;5022641;28;20700;-59
2023/09/04 02:55:47;;;;;;;7.83;4.07;;;;;;;;;;5009394;28;20911;-59
2023/09/04 02:58:13;;;;;;;6.55;3.92;;;;;;;;;;5008165;28;20594;-59
2023/09/04 03:00:41;;;;;;;7.10;4.30;;;;;;;;;;5007115;28;20867;-59
2023/09/04 03:03:07;;;;;;;6.30;4.00;;;;;;;;;;5006105;28;20408;-59
2023/09/04 03:05:32;;;;;;;6.63;4.65;;;;;;;;;;5002959;28;21154;-59
2023/09/04 03:07:57;;;;;;;7.30;4.67;;;;;;;;;;5007073;28;20403;-59
2023/09/04 03:10:22;;;;;;;9.10;4.37;;;;;;;;;;5013236;28;20478;-59
2023/09/04 03:12:48;;;;;;;7.20;3.53;;;;;;;;;;5013566;28;20415;-59
2023/09/04 03:15:13;;;;;;;7.87;4.40;;;;;;;;;;5017159;28;20411;-59
2023/09/04 03:17:38;;;;;;;6.97;4.27;;;;;;;;;;5029746;28;20468;-59
2023/09/04 03:20:05;;;;;;;7.00;4.90;;;;;;;;;;5029873;28;20404;-59
2023/09/04 03:22:30;;;;;;;6.60;4.75;;;;;;;;;;5025490;28;20434;-59
2023/09/04 03:24:55;;;;;;;7.15;4.82;;;;;;;;;;5025875;28;20529;-59
2023/09/04 03:27:20;;;;;;;7.77;4.63;;;;;;;;;;5021343;28;20888;-59
2023/09/04 03:29:46;;;;;;;6.37;4.53;;;;;;;;;;5024911;28;20394;-59
2023/09/04 03:32:11;;;;;;;6.90;4.70;;;;;;;;;;5025933;28;20790;-59
2023/09/04 03:34:37;;;;;;;7.67;5.10;;;;;;;;;;5023318;28;20411;-59
2023/09/04 03:37:02;;;;;;;7.93;5.53;;;;;;;;;;5022637;28;20411;-59
2023/09/04 03:39:27;;;;;;;8.33;5.70;;;;;;;;;;5025885;28;20901;-59
2023/09/04 03:41:52;;;;;;;6.60;4.90;;;;;;;;;;5025743;28;20815;-59
2023/09/04 03:44:18;;;;;;;5.80;4.13;;;;;;;;;;5020348;28;20405;-59
2023/09/04 03:46:43;;;;;;;5.50;4.10;;;;;;;;;;5026066;28;20866;-59
2023/09/04 03:49:08;;;;;;;7.55;5.43;;;;;;;;;;5025255;28;20464;-59
2023/09/04 03:51:34;;;;;;;9.47;5.80;;;;;;;;;;5020738;28;20418;-59
2023/09/04 03:54:03;;;;;;;7.97;5.13;;;;;;;;;;5024814;28;20418;-59
2023/09/04 03:56:29;;;;;;;5.85;4.05;;;;;;;;;;5037130;28;20403;-59
2023/09/04 03:58:54;;;;;;;7.67;5.17;;;;;;;;;;5034988;28;20455;-59
2023/09/04 04:01:20;;;;;;;8.63;5.20;;;;;;;;;;5030677;28;20386;-59
2023/09/04 04:03:48;;;;;;;7.57;4.70;;;;;;;;;;5030658;28;21411;-59
2023/09/04 04:06:13;;;;;;;8.18;5.15;;;;;;;;;;5034117;28;20439;-59
2023/09/04 04:08:39;;;;;;;8.60;5.53;;;;;;;;;;5028092;28;21488;-59
2023/09/04 04:11:04;;;;;;;7.43;5.17;;;;;;;;;;5025161;28;20416;-59
2023/09/04 04:13:29;;;;;;;6.20;4.40;;;;;;;;;;5024963;28;20407;-59
2023/09/04 04:15:59;;;;;;;5.93;4.40;;;;;;;;;;5021846;28;20407;-59
2023/09/04 04:18:24;;;;;;;7.20;4.78;;;;;;;;;;5022457;28;20409;-59
2023/09/04 04:20:50;;;;;;;7.17;4.80;;;;;;;;;;5023025;28;20413;-59
2023/09/04 04:23:15;;;;;;;6.27;4.20;;;;;;;;;;5021138;28;20408;-59
2023/09/04 04:25:40;;;;;;;6.87;4.73;;;;;;;;;;5020249;28;20742;-59
2023/09/04 04:28:05;;;;;;;7.57;5.27;;;;;;;;;;5016715;28;20413;-59
2023/09/04 04:30:31;;;;;;;6.60;5.00;;;;;;;;;;5024783;28;20407;-59
2023/09/04 04:32:56;;;;;;;6.93;4.70;;;;;;;;;;5020242;28;20420;-59
2023/09/04 04:35:22;;;;;;;7.88;4.97;;;;;;;;;;5034663;28;20401;-59
2023/09/04 04:37:47;;;;;;;8.53;6.00;;;;;;;;;;5019913;28;20815;-59
2023/09/04 04:40:14;;;;;;;6.73;4.20;;;;;;;;;;4990706;28;20787;-59
2023/09/04 04:42:39;;;;;;;6.00;5.07;;;;;;;;;;4998940;28;20433;-59
2023/09/04 04:45:05;;;;;;;8.65;6.10;;;;;;;;;;4986247;28;20699;-59
2023/09/04 04:47:30;;;;;;;7.57;4.90;;;;;;;;;;4980890;28;20793;-59
2023/09/04 04:49:55;;;;;;;7.90;5.63;;;;;;;;;;4985888;28;20847;-59
2023/09/04 04:52:20;;;;;;;7.60;5.53;;;;;;;;;;4982349;28;20917;-59
2023/09/04 04:54:46;;;;;;;8.33;6.33;;;;;;;;;;4985582;28;20493;-59
2023/09/04 04:57:11;;;;;;;8.70;7.10;;;;;;;;;;4984357;28;20408;-59
2023/09/04 04:59:36;;;;;;;7.47;5.17;;;;;;;;;;4999496;28;20463;-59
2023/09/04 05:02:02;;;;;;;8.30;6.15;;;;;;;;;;5008418;28;21019;-59
2023/09/04 05:04:27;;;;;;;7.60;5.47;;;;;;;;;;4989998;28;20433;-59
2023/09/04 05:06:53;;;;;;;6.67;5.20;;;;;;;;;;4992489;28;20472;-59
2023/09/04 05:09:18;;;;;;;6.60;5.37;;;;;;;;;;4984241;28;21180;-59
2023/09/04 05:11:43;;;;;;;7.07;5.10;;;;;;;;;;4981340;28;20423;-59
2023/09/04 05:14:09;;;;;;;7.83;5.70;;;;;;;;;;4980947;28;20429;-59
2023/09/04 05:16:34;;;;;;;7.60;5.53;;;;;;;;;;4995692;28;20791;-59
2023/09/04 05:18:59;;;;;;;7.10;5.07;;;;;;;;;;5009876;28;20648;-59
2023/09/04 05:21:24;;;;;;;9.07;5.20;;;;;;;;;;5001412;28;20408;-59
2023/09/04 05:23:51;;;;;;;7.63;4.70;;;;;;;;;;5002699;28;20498;-58
2023/09/04 05:26:16;;;;;;;7.15;5.15;;;;;;;;;;5012744;28;20413;-59
2023/09/04 05:28:41;;;;;;;8.00;5.30;;;;;;;;;;4995101;28;20409;-59
2023/09/04 05:31:07;;;;;;;7.80;4.67;;;;;;;;;;5003714;28;20531;-60
2023/09/04 05:33:32;;;;;;;6.90;4.33;;;;;;;;;;4995792;28;20412;-59
2023/09/04 05:35:57;;;;;;;6.60;4.50;;;;;;;;;;5001485;28;20425;-59
2023/09/04 05:38:23;;;;;;;6.27;4.60;;;;;;;;;;4998260;28;20397;-59
2023/09/04 05:40:48;;;;;;;6.60;4.77;;;;;;;;;;5010929;28;21248;-59
2023/09/04 05:43:14;;;;;;;7.20;5.28;;;;;;;;;;5007596;28;20421;-59
2023/09/04 05:45:39;;;;;;;7.97;5.13;;;;;;;;;;5007469;28;20452;-60
2023/09/04 05:48:06;;;;;;;7.27;4.90;;;;;;;;;;5003394;28;20424;-60
2023/09/04 05:50:31;;;;;;;6.68;4.78;;;;;;;;;;4997199;28;20472;-60
2023/09/04 05:52:57;;;;;;;8.23;5.63;;;;;;;;;;4986539;28;20485;-60
2023/09/04 05:55:22;;;;;;;7.68;5.45;;;;;;;;;;4994808;28;20941;-60
2023/09/04 05:57:47;;;;;;;6.50;5.30;;;;;;;;;;4995665;28;20495;-60
2023/09/04 06:00:14;;;;;;;7.97;5.10;;;;;;;;;;4984976;28;20859;-60
2023/09/04 06:02:39;;;;;;;7.20;5.10;;;;;;;;;;4989495;28;20420;-60
2023/09/04 06:05:04;;;;;;;6.67;5.57;;;;;;;;;;4990851;28;20782;-60
2023/09/04 06:07:30;;;;;;;8.07;5.90;;;;;;;;;;4988667;28;20403;-60
2023/09/04 06:09:55;;;;;;;7.60;5.53;;;;;;;;;;4988098;28;20463;-60
2023/09/04 06:12:21;;;;;;;8.73;5.80;;;;;;;;;;5002482;28;20396;-59
2023/09/04 06:14:47;;;;;;;6.17;5.37;;;;;;;;;;5000576;28;20597;-59
2023/09/04 06:17:12;;;;;;;9.10;5.40;;;;;;;;;;4983468;28;20407;-59
2023/09/04 06:19:38;;;;;;;6.90;5.35;;;;;;;;;;5013227;28;20397;-59
2023/09/04 06:22:03;;;;;;;6.43;5.30;;;;;;;;;;5014483;28;20463;-60
2023/09/04 06:24:28;;;;;;;6.07;5.40;;;;;;;;;;5013495;28;20439;-60
2023/09/04 06:26:53;;;;;;;8.33;5.40;;;;;;;;;;5012098;28;20841;-59
2023/09/04 06:29:19;;;;;;;7.70;5.63;;;;;;;;;;5015328;28;20422;-60
2023/09/04 06:31:44;;;;;;;7.17;5.20;;;;;;;;;;5013659;28;20407;-60
2023/09/04 06:34:10;;;;;;;7.10;5.37;;;;;;;;;;5008823;28;20408;-59
2023/09/04 06:36:35;;;;;;;7.20;5.70;;;;;;;;;;5021274;28;20396;-60
2023/09/04 06:39:01;;;;;;;7.97;5.50;;;;;;;;;;5020699;28;20425;-60
2023/09/04 06:41:26;;;;;;;7.22;5.30;;;;;;;;;;5014352;28;20420;-60
2023/09/04 06:43:51;;;;;;;6.33;5.50;;;;;;;;;;5011468;28;20417;-59
2023/09/04 06:46:17;;;;;;;8.27;5.50;;;;;;;;;;5015257;28;20441;-59
2023/09/04 06:48:42;;;;;;;7.67;5.43;;;;;;;;;;5027806;28;20726;-59
2023/09/04 06:51:07;;;;;;;8.93;6.00;;;;;;;;;;5033581;28;20397;-60
2023/09/04 06:53:33;;;;;;;6.77;5.70;;;;;;;;;;5026800;28;20917;-59
2023/09/04 06:55:58;;;;;;;11.43;6.30;;;;;;;;;;5029748;28;20414;-59
2023/09/04 06:58:26;;;;;;;7.23;5.60;;;;;;;;;;5022793;28;20406;-59
2023/09/04 07:00:52;;;;;;;7.82;5.90;;;;;;;;;;5020325;28;20798;-59
2023/09/04 07:03:18;;;;;;;7.72;5.93;;;;;;;;;;5019292;28;20502;-59
2023/09/04 07:05:43;;;;;;;8.10;5.60;;;;;;;;;;5022893;28;20494;-59
2023/09/04 07:08:08;;;;;;;7.83;5.80;;;;;;;;;;5021766;28;20391;-60
2023/09/04 07:10:35;;;;;;;7.43;6.00;;;;;;;;;;5017543;28;20950;-59
2023/09/04 07:13:00;;;;;;;7.30;5.63;;;;;;;;;;5005905;28;20932;-59
2023/09/04 07:15:26;;;;;;;6.72;5.85;;;;;;;;;;5021841;28;20406;-59
2023/09/04 07:17:51;;;;;;;8.10;6.00;;;;;;;;;;5019624;28;20547;-59
2023/09/04 07:20:17;;;;;;;8.18;5.80;;;;;;;;;;5019500;28;20875;-59
2023/09/04 07:22:42;;;;;;;7.57;5.72;;;;;;;;;;5016389;28;20413;-59
2023/09/04 07:25:07;;;;;;;6.57;5.63;;;;;;;;;;5020983;28;20395;-59
2023/09/04 07:27:33;;;;;;;7.13;5.97;;;;;;;;;;5029807;28;20401;-59
2023/09/04 07:29:58;;;;;;;6.90;5.57;;;;;;;;;;5031464;28;20916;-59
2023/09/04 07:32:25;;;;;;;7.07;5.33;;;;;;;;;;5030766;28;20395;-59
2023/09/04 07:34:55;;;;;;;6.88;5.28;;;;;;;;;;5026062;28;20498;-59
2023/09/04 07:37:21;;;;;;;7.05;6.00;;;;;;;;;;5020679;28;20483;-59
2023/09/04 07:39:46;;;;;;;8.43;5.90;;;;;;;;;;5024269;28;20490;-59
2023/09/04 07:42:12;;;;;;;6.97;6.00;;;;;;;;;;5023516;28;20438;-59
2023/09/04 07:44:37;;;;;;;7.00;5.43;;;;;;;;;;5021877;28;20406;-59
2023/09/04 07:47:03;;;;;;;7.70;5.65;;;;;;;;;;5026067;28;20825;-60
2023/09/04 07:49:28;;;;;;;8.57;5.50;;;;;;;;;;5025513;28;20395;-59
2023/09/04 07:51:53;;;;;;;6.93;5.60;;;;;;;;;;5020544;28;20890;-59
2023/09/04 07:54:19;;;;;;;6.43;5.27;;;;;;;;;;5025845;28;20502;-59
2023/09/04 07:56:44;;;;;;;7.70;5.57;;;;;;;;;;5026612;28;20426;-59
2023/09/04 07:59:09;;;;;;;7.40;5.40;;;;;;;;;;5031521;28;20403;-60
2023/09/04 08:01:35;;;;;;;7.97;5.50;;;;;;;;;;5025383;28;20418;-59
2023/09/04 08:04:01;;;;;;;7.00;5.50;;;;;;;;;;5033957;28;20443;-59
2023/09/04 08:06:26;;;;;;;7.80;5.40;;;;;;;;;;5031875;28;20392;-59
2023/09/04 08:08:52;;;;;;;6.50;5.40;;;;;;;;;;5037271;28;20910;-59
2023/09/04 08:11:17;;;;;;;6.70;5.40;;;;;;;;;;5025494;28;20577;-59
2023/09/04 08:13:43;;;;;;;7.13;5.57;;;;;;;;;;5022493;28;20920;-59
2023/09/04 08:16:08;;;;;;;7.40;5.40;;;;;;;;;;5032103;28;20461;-60
2023/09/04 08:18:33;;;;;;;7.30;5.50;;;;;;;;;;5036499;28;20389;-59
2023/09/04 08:20:59;;;;;;;6.80;5.60;;;;;;;;;;5027997;28;20411;-59
2023/09/04 08:23:24;;;;;;;7.00;5.53;;;;;;;;;;5020934;28;20411;-59
2023/09/04 08:25:56;;;;;;;7.30;5.87;;;;;;;;;;5024748;28;21477;-59
2023/09/04 08:28:21;;;;;;;6.83;5.93;;;;;;;;;;5024525;28;20399;-59
2023/09/04 08:30:47;;;;;;;6.97;5.37;;;;;;;;;;5020978;28;20401;-59
2023/09/04 08:33:12;;;;;;;7.87;5.90;;;;;;;;;;5019065;28;20840;-59
2023/09/04 08:35:38;;;;;;;9.02;6.28;;;;;;;;;;5023976;28;20415;-59
2023/09/04 08:38:05;;;;;;;8.20;5.97;;;;;;;;;;5022413;28;20895;-60
2023/09/04 08:40:30;;;;;;;8.45;6.07;;;;;;;;;;5021033;28;20465;-59
2023/09/04 08:42:57;;;;;;;7.83;5.90;;;;;;;;;;5023035;28;20403;-59
2023/09/04 08:45:22;;;;;;;7.30;5.50;;;;;;;;;;5024458;28;20417;-59
2023/09/04 08:47:47;;;;;;;7.93;6.03;;;;;;;;;;5019379;28;20929;-60
2023/09/04 08:50:14;;;;;;;9.13;6.00;;;;;;;;;;5030876;28;20747;-60
2023/09/04 08:52:39;;;;;;;9.32;6.15;;;;;;;;;;5024579;28;20426;-59
2023/09/04 08:55:05;;;;;;;8.17;5.80;;;;;;;;;;5024994;28;20422;-60
2023/09/04 08:57:30;;;;;;;8.10;5.30;;;;;;;;;;5019382;28;20522;-60
2023/09/04 08:59:56;;;;;;;7.33;5.60;;;;;;;;;;5022910;28;20751;-60
2023/09/04 09:02:21;;;;;;;8.77;5.50;;;;;;;;;;5029110;28;20532;-60
2023/09/04 09:04:46;;;;;;;7.70;5.27;;;;;;;;;;5030441;28;20407;-60
2023/09/04 09:07:12;;;;;;;6.50;5.20;;;;;;;;;;5030918;28;20423;-60
2023/09/04 09:09:38;;;;;;;8.48;5.53;;;;;;;;;;5036285;28;20525;-59
2023/09/04 09:12:04;;;;;;;8.37;5.50;;;;;;;;;;5035004;28;20463;-60
2023/09/04 09:14:30;;;;;;;6.85;4.90;;;;;;;;;;5026896;28;20423;-60
2023/09/04 09:17:03;;;;;;;7.47;4.93;;;;;;;;;;5022915;28;20392;-60
2023/09/04 09:19:30;;;;;;;7.72;4.93;;;;;;;;;;5023479;28;20435;-59
2023/09/04 09:22:07;;;;;;;8.77;4.78;;;;;;;;;;5020706;28;20403;-59
2023/09/04 09:24:33;;;;;;;7.18;4.95;;;;;;;;;;5024805;28;20451;-60
2023/09/04 09:26:58;;;;;;;6.80;4.70;;;;;;;;;;5034506;28;20990;-59
2023/09/04 09:29:24;;;;;;;7.37;5.30;;;;;;;;;;5019788;28;20388;-60
2023/09/04 09:31:52;;;;;;;6.93;4.90;;;;;;;;;;5031612;28;20426;-60
2023/09/04 09:34:18;;;;;;;6.45;4.35;;;;;;;;;;5034370;28;20617;-60
2023/09/04 09:36:43;;;;;;;7.43;4.53;;;;;;;;;;5023172;28;20895;-60
2023/09/04 09:39:09;;;;;;;9.40;5.03;;;;;;;;;;5018153;28;20414;-60
2023/09/04 09:41:34;;;;;;;9.10;4.77;;;;;;;;;;5014861;28;20407;-60
2023/09/04 09:44:01;;;;;;;6.40;4.35;;;;;;;;;;5017516;28;20432;-59
2023/09/04 09:46:27;;;;;;;6.53;4.32;;;;;;;;;;5021561;28;20391;-60
2023/09/04 09:48:52;;;;;;;5.73;3.60;;;;;;;;;;5017348;28;20441;-60
2023/09/04 09:51:17;;;;;;;6.23;4.20;;;;;;;;;;5022178;28;20894;-60
2023/09/04 09:53:43;;;;;;;6.77;3.93;;;;;;;;;;5023382;28;20411;-60
2023/09/04 09:56:09;;;;;;;6.22;4.07;;;;;;;;;;5019124;28;20488;-60
2023/09/04 09:58:34;;;;;;;4.77;3.77;;;;;;;;;;5021746;28;20817;-60
2023/09/04 10:01:00;;;;;;;7.17;4.40;;;;;;;;;;5030787;28;20944;-60
2023/09/04 10:03:25;;;;;;;5.73;3.90;;;;;;;;;;5028611;28;20402;-60
2023/09/04 10:05:50;;;;;;;7.27;3.83;;;;;;;;;;5018586;28;21035;-60
2023/09/04 10:08:16;;;;;;;6.00;3.97;;;;;;;;;;5021896;28;20414;-60
2023/09/04 10:10:41;;;;;;;5.83;3.60;;;;;;;;;;5022370;28;20387;-60
2023/09/04 10:13:09;;;;;;;6.17;4.00;;;;;;;;;;5018019;28;20415;-60
2023/09/04 10:15:35;;;;;;;7.05;3.70;;;;;;;;;;5021691;28;20494;-60
2023/09/04 10:18:02;;;;;;;5.80;3.40;;;;;;;;;;5022722;28;20648;-60
2023/09/04 10:20:27;;;;;;;5.00;3.30;;;;;;;;;;5023040;28;20450;-60
2023/09/04 10:22:56;;;;;;;7.30;3.67;;;;;;;;;;5024391;28;20407;-60
2023/09/04 10:25:31;;;;;;;6.30;3.72;;;;;;;;;;5020515;28;20456;-60
2023/09/04 10:28:03;;;;;;;5.88;3.33;;;;;;;;;;5021414;28;20441;-60
2023/09/04 10:30:29;;;;;;;5.85;3.85;;;;;;;;;;5032333;28;20933;-60
2023/09/04 10:32:54;;;;;;;5.85;3.95;;;;;;;;;;5030787;28;20415;-60
2023/09/04 10:35:19;;;;;;;6.03;3.90;;;;;;;;;;5033531;28;20417;-60
2023/09/04 10:37:47;;;;;;;5.40;3.90;;;;;;;;;;5031631;28;20983;-60
2023/09/04 10:40:12;;;;;;;6.77;4.43;;;;;;;;;;5021996;28;21027;-60
2023/09/04 10:42:38;;;;;;;4.80;3.70;;;;;;;;;;5028344;28;20430;-60
2023/09/04 10:45:12;;;;;;;6.18;3.75;;;;;;;;;;5013330;28;20405;-60
2023/09/04 10:47:53;;;;;;;5.15;3.80;;;;;;;;;;5031803;28;20398;-60
2023/09/04 10:50:25;;;;;;;6.70;4.20;;;;;;;;;;5037566;28;20395;-60
2023/09/04 10:52:50;;;;;;;5.57;3.72;;;;;;;;;;5025178;28;20407;-60
2023/09/04 10:55:17;;;;;;;6.40;3.70;;;;;;;;;;5020364;28;21002;-60
2023/09/04 10:57:53;;;;;;;4.50;3.00;;;;;;;;;;5028201;28;20387;-60
2023/09/04 11:00:28;;;;;;;6.10;3.00;;;;;;;;;;5022363;28;20464;-60
2023/09/04 11:02:53;;;;;;;5.68;3.45;;;;;;;;;;5023940;28;20411;-60
2023/09/04 11:05:19;;;;;;;7.43;3.37;;;;;;;;;;5017851;28;20454;-60
2023/09/04 11:07:44;;;;;;;6.27;2.67;;;;;;;;;;5021623;28;20745;-60
2023/09/04 11:10:11;;;;;;;6.18;3.00;;;;;;;;;;5021067;28;20403;-60
2023/09/04 11:12:36;;;;;;;5.03;3.20;;;;;;;;;;5023151;28;20423;-60
2023/09/04 11:15:04;;;;;;;6.43;3.00;;;;;;;;;;5032479;28;20437;-60
2023/09/04 11:17:29;;;;;;;5.70;2.88;;;;;;;;;;5018547;28;20404;-60
2023/09/04 11:19:55;;;;;;;5.30;3.10;;;;;;;;;;5028348;28;20432;-60
2023/09/04 11:22:21;;;;;;;4.30;2.90;;;;;;;;;;5025197;28;20395;-60
2023/09/04 11:24:46;;;;;;;6.05;3.40;;;;;;;;;;5021869;28;20438;-60
2023/09/04 11:27:11;;;;;;;4.77;3.07;;;;;;;;;;5025858;28;20415;-60
2023/09/04 11:29:37;;;;;;;4.77;3.07;;;;;;;;;;5021956;28;20937;-60
2023/09/04 11:32:02;;;;;;;6.32;3.35;;;;;;;;;;5022366;28;20406;-60
2023/09/04 11:34:27;;;;;;;4.47;2.80;;;;;;;;;;5027640;28;20398;-60
2023/09/04 11:36:53;;;;;;;4.95;2.97;;;;;;;;;;5029017;28;20589;-60
2023/09/04 11:39:19;;;;;;;4.70;3.10;;;;;;;;;;5023471;28;20902;-59
2023/09/04 11:41:46;;;;;;;6.13;3.22;;;;;;;;;;5022220;28;20399;-60
2023/09/04 11:44:11;;;;;;;4.55;3.38;;;;;;;;;;5022328;28;20416;-60
2023/09/04 11:46:36;;;;;;;5.30;2.97;;;;;;;;;;5025694;28;20407;-60
2023/09/04 11:49:03;;;;;;;6.95;3.30;;;;;;;;;;5027650;28;20403;-61
2023/09/04 11:51:29;;;;;;;5.18;3.63;;;;;;;;;;5033152;28;20406;-60
2023/09/04 11:53:54;;;;;;;5.17;3.43;;;;;;;;;;5026001;28;20403;-60
2023/09/04 11:56:20;;;;;;;6.00;4.10;;;;;;;;;;5021199;28;20402;-60
2023/09/04 11:58:45;;;;;;;7.13;4.23;;;;;;;;;;5022797;28;20400;-60
2023/09/04 12:01:10;;;;;;;5.87;4.10;;;;;;;;;;5040573;28;20409;-60
2023/09/04 12:03:35;;;;;;;4.73;3.50;;;;;;;;;;5039511;28;20453;-60
2023/09/04 12:06:01;;;;;;;7.03;3.90;;;;;;;;;;5029125;28;20450;-61
2023/09/04 12:08:26;;;;;;;5.30;4.03;;;;;;;;;;5037635;28;20403;-60
2023/09/04 12:10:51;;;;;;;6.43;3.90;;;;;;;;;;5036587;28;20408;-60
2023/09/04 12:13:17;;;;;;;5.50;3.80;;;;;;;;;;5023712;28;20992;-60
2023/09/04 12:15:42;;;;;;;7.20;4.43;;;;;;;;;;5035482;28;20462;-60
2023/09/04 12:18:09;;;;;;;5.57;3.87;;;;;;;;;;5040469;28;20390;-61
2023/09/04 12:20:35;;;;;;;5.97;4.55;;;;;;;;;;5036340;28;20419;-60
2023/09/04 12:23:01;;;;;;;5.30;3.90;;;;;;;;;;5023162;28;20457;-61
2023/09/04 12:25:36;;;;;;;7.50;4.22;;;;;;;;;;5030975;28;20968;-60
2023/09/04 12:28:04;;;;;;;6.03;3.97;;;;;;;;;;5026578;28;20442;-61
2023/09/04 12:30:29;;;;;;;6.07;4.45;;;;;;;;;;5031946;28;20475;-60
2023/09/04 12:32:58;;;;;;;6.27;4.10;;;;;;;;;;5019803;28;20437;-60
2023/09/04 12:35:23;;;;;;;4.63;3.15;;;;;;;;;;5023690;28;20738;-60
2023/09/04 12:37:48;;;;;;;5.87;3.50;;;;;;;;;;5024063;28;20425;-60
2023/09/04 12:40:14;;;;;;;5.73;3.70;;;;;;;;;;5021320;28;20842;-60
2023/09/04 12:42:39;;;;;;;5.77;3.67;;;;;;;;;;5019104;28;21916;-60
2023/09/04 12:45:06;;;;;;;5.97;3.97;;;;;;;;;;5012756;28;20860;-60
2023/09/04 12:47:31;;;;;;;5.77;4.10;;;;;;;;;;5011087;28;20390;-60
2023/09/04 12:49:56;;;;;;;5.53;3.63;;;;;;;;;;5018917;28;20459;-60
2023/09/04 12:52:22;;;;;;;6.30;3.90;;;;;;;;;;5034845;28;20542;-60
2023/09/04 12:54:48;;;;;;;5.83;3.77;;;;;;;;;;5036857;28;20493;-60
2023/09/04 12:57:13;;;;;;;4.73;3.20;;;;;;;;;;5030837;28;20414;-60
2023/09/04 12:59:39;;;;;;;5.27;3.10;;;;;;;;;;5030286;28;20785;-60
2023/09/04 13:02:04;;;;;;;5.23;3.40;;;;;;;;;;5032942;28;20790;-60
2023/09/04 13:04:29;;;;;;;5.57;3.50;;;;;;;;;;5034699;28;20394;-60
2023/09/04 13:06:55;;;;;;;4.80;3.30;;;;;;;;;;5032154;28;20935;-60
2023/09/04 13:09:20;;;;;;;5.27;3.50;;;;;;;;;;5033200;28;20395;-60
2023/09/04 13:11:45;;;;;;;5.63;3.53;;;;;;;;;;5032572;28;20402;-60
2023/09/04 13:14:11;;;;;;;3.87;2.90;;;;;;;;;;5027850;28;20426;-60
2023/09/04 13:16:37;;;;;;;4.73;3.23;;;;;;;;;;5035883;28;20426;-60
2023/09/04 13:19:02;;;;;;;5.27;3.27;;;;;;;;;;5035338;28;20908;-60
2023/09/04 13:21:28;;;;;;;4.63;3.70;;;;;;;;;;5026876;28;20401;-60
2023/09/04 13:23:53;;;;;;;4.68;3.30;;;;;;;;;;5022256;28;20399;-60
2023/09/04 13:26:19;;;;;;;5.33;3.50;;;;;;;;;;5019785;28;20494;-60
2023/09/04 13:28:45;;;;;;;5.50;3.40;;;;;;;;;;5021943;28;20431;-59
2023/09/04 13:31:13;;;;;;;4.80;3.40;;;;;;;;;;5016412;28;20444;-60
2023/09/04 13:33:38;;;;;;;5.55;3.45;;;;;;;;;;4996129;28;20836;-60
2023/09/04 13:36:03;;;;;;;4.53;2.90;;;;;;;;;;4992076;28;20415;-60
2023/09/04 13:38:29;;;;;;;5.10;3.73;;;;;;;;;;4986302;28;20406;-60
2023/09/04 13:40:54;;;;;;;5.43;3.10;;;;;;;;;;4990758;28;21010;-60
2023/09/04 13:43:19;;;;;;;5.17;2.93;;;;;;;;;;4998148;28;20404;-59
2023/09/04 13:45:44;;;;;;;4.87;2.80;;;;;;;;;;4993434;28;20543;-59
2023/09/04 13:48:10;;;;;;;5.00;2.88;;;;;;;;;;4993586;28;20979;-60
2023/09/04 13:50:35;;;;;;;5.25;3.22;;;;;;;;;;4995407;28;20407;-60
2023/09/04 13:53:00;;;;;;;4.87;3.47;;;;;;;;;;4992250;28;20408;-61
2023/09/04 13:55:26;;;;;;;4.90;3.10;;;;;;;;;;4990447;28;20723;-60
2023/09/04 13:57:51;;;;;;;6.97;3.77;;;;;;;;;;4985606;28;20411;-59
2023/09/04 14:00:16;;;;;;;4.73;3.40;;;;;;;;;;4985392;28;20411;-60
2023/09/04 14:02:43;;;;;;;3.90;3.00;;;;;;;;;;4986073;28;20441;-59
2023/09/04 14:05:11;;;;;;;4.70;3.00;;;;;;;;;;4992904;28;20419;-60
2023/09/04 14:07:37;;;;;;;4.40;2.50;;;;;;;;;;4997549;28;21058;-60
2023/09/04 14:10:02;;;;;;;4.93;3.30;;;;;;;;;;5000028;28;20463;-60
2023/09/04 14:12:29;;;;;;;5.57;3.63;;;;;;;;;;4993005;28;20490;-60
2023/09/04 14:14:55;;;;;;;6.57;3.80;;;;;;;;;;4997146;28;20433;-60
2023/09/04 14:17:21;;;;;;;5.53;3.70;;;;;;;;;;4997227;28;20427;-60
2023/09/04 14:19:46;;;;;;;4.40;3.13;;;;;;;;;;4984900;28;20415;-59
2023/09/04 14:22:11;;;;;;;10.83;3.53;;;;;;;;;;4987066;28;20418;-60
2023/09/04 14:24:37;;;;;;;4.80;2.80;;;;;;;;;;4987983;28;20401;-60
2023/09/04 14:27:02;;;;;;;6.47;3.20;;;;;;;;;;4991189;28;20421;-60
2023/09/04 14:29:27;;;;;;;5.33;2.50;;;;;;;;;;4992854;28;20410;-59
2023/09/04 14:31:53;;;;;;;4.90;2.47;;;;;;;;;;4996910;28;20407;-60
2023/09/04 14:34:18;;;;;;;4.60;2.30;;;;;;;;;;4992102;28;20412;-60